Terminal Aerodrome Forecast
Issued by NWS

Home | Current Version | Previous Version | Text Only | Print | Product List | Glossary On
Versions: 1 2 3 4 5 6 7 8 9 10 11 12 13 14 15 16 17 18 19 20 21 22 23 24 25 26 27 28 29 30 31 32 33 34
000
FTUS43 KDMX 252320
TAFFOD
TAF
KFOD 252320Z 2600/2624 17012G19KT P6SM SKC
     FM260100 17009KT P6SM BKN220
     FM260500 17007KT P6SM SCT150 WS020/21035KT
     FM261000 18006KT P6SM BKN230
     FM261400 18005KT 5SM -TSRA SCT050CB BKN090
      TEMPO 2616/2618 2SM -TSRA BKN025CB
     FM261900 02004KT 2SM SHRA VCTS OVC025CB=

USA.gov is the U.S. government's official web portal to all federal, state and local government web resources and services.